EDT,Max TemperatureF,Mean TemperatureF,Min TemperatureF,Max Dew PointF,MeanDew PointF,Min DewpointF,Max Humidity, Mean Humidity, Min Humidity, Max Sea Level PressureIn, Mean Sea Level PressureIn, Min Sea Level PressureIn, Max VisibilityMiles, Mean VisibilityMiles, Min VisibilityMiles, Max Wind SpeedMPH, Mean Wind SpeedMPH, Max Gust SpeedMPH,PrecipitationIn, CloudCover, Events, WindDirDegrees
2012-8-1,86,72,60,70,65,61,100,83,57,29.93,29.89,29.83,10,9,1,17,3,22,0.00,6,Rain,187
2012-8-2,91,78,64,68,65,60,100,75,37,29.91,29.86,29.83,10,10,2,13,2,,0.00,3,,205
2012-8-3,93,80,66,73,69,64,100,90,38,30.10,29.95,29.91,10,4,0,14,2,,0.00,3,Fog,190
2012-8-4,94,80,68,74,71,68,100,91,49,30.21,30.16,30.11,10,4,0,13,2,20,0.00,2,Fog,99
2012-8-5,92,81,71,77,74,71,100,89,52,30.20,30.07,29.92,10,8,0,22,10,31,0.27,7,Fog-Rain-Thunderstorm,186
2012-8-6,82,70,59,72,66,56,100,84,43,30.01,29.97,29.95,10,9,2,16,5,22,0.00,4,,224
2012-8-7,85,68,53,63,57,54,100,85,42,30.03,30.00,29.94,10,6,1,10,2,,0.00,1,,77
2012-8-8,89,73,57,69,60,56,100,89,33,30.01,29.98,29.93,10,4,0,12,2,,0.00,0,Fog,75
2012-8-9,90,78,66,73,69,66,100,87,48,29.97,29.93,29.86,10,5,0,15,3,22,0.15,5,Fog-Rain-Thunderstorm,183
2012-8-10,83,75,68,72,71,68,100,89,66,29.90,29.85,29.73,10,8,1,22,6,24,1.07,7,Rain-Thunderstorm,149
2012-8-11,85,75,66,75,68,66,100,94,69,29.91,29.86,29.83,10,4,0,15,1,21,0.02,6,Fog-Rain-Thunderstorm,108
2012-8-12,88,76,64,73,70,61,100,87,45,29.92,29.90,29.84,10,10,10,14,4,20,0.00,6,Rain,161
2012-8-13,85,72,59,67,61,58,100,91,43,29.98,29.94,29.91,10,4,0,10,1,,0.00,0,Fog,349
2012-8-14,80,70,59,68,62,59,100,84,52,29.98,29.94,29.90,10,8,1,8,1,,0.00,2,Rain,199
2012-8-15,83,74,64,70,66,63,100,91,55,29.95,29.88,29.85,10,7,0,29,4,36,1.71,7,Fog-Rain-Thunderstorm,235
2012-8-16,84,74,63,68,64,59,100,80,42,29.89,29.86,29.82,10,10,5,13,2,,0.01,4,Fog-Rain-Thunderstorm,8
2012-8-17,87,72,56,69,60,55,100,91,49,29.87,29.85,29.76,10,4,0,18,1,23,0.06,1,Fog-Rain-Thunderstorm,203
2012-8-18,79,68,55,66,60,48,100,81,34,29.93,29.88,29.84,10,10,10,13,2,,0.12,3,Rain,307
2012-8-19,74,61,48,57,51,48,100,87,46,29.99,29.96,29.92,10,6,1,7,1,,0.00,1,,335
2012-8-20,81,66,51,62,56,50,100,72,39,29.94,29.90,29.84,10,10,10,5,1,,0.00,3,Rain,46
2012-8-21,81,69,56,63,56,48,98,66,32,30.10,30.00,29.92,10,10,10,13,3,20,0.00,2,,307
2012-8-22,83,66,50,62,56,50,100,69,37,30.17,30.13,30.09,10,9,2,18,2,25,0.03,1,Rain,193
2012-8-23,85,70,55,64,58,55,100,92,44,30.16,30.14,30.08,10,3,0,9,1,,0.00,0,Fog,163
2012-8-24,86,70,55,69,60,55,100,93,40,30.20,30.15,30.13,10,3,0,6,1,,0.00,1,Fog,23
2012-8-25,86,72,60,67,63,59,100,94,48,30.32,30.23,30.20,10,3,0,7,0,,0.00,1,Fog-Rain,92
2012-8-26,85,70,55,63,59,55,100,91,40,30.35,30.32,30.23,10,4,0,10,1,,0.00,1,Fog,96
2012-8-27,84,68,53,70,59,52,100,91,56,30.23,30.13,29.94,10,5,0,18,2,20,0.00,2,Fog,169
2012-8-28,85,74,63,72,68,59,100,89,46,29.94,29.84,29.75,10,6,0,13,6,23,1.09,6,Fog-Rain,28
2012-8-29,77,64,53,58,51,44,97,62,38,30.01,29.96,29.90,10,10,10,10,5,20,0.00,0,,15
2012-8-30,81,64,48,56,52,46,98,68,36,30.07,30.03,30.00,10,10,3,15,3,20,0.00,0,,214
2012-8-31,90,68,48,62,53,48,100,83,27,30.02,29.97,29.84,10,5,1,16,3,,0.00,0,,207